Time;durP1;ratioP1;P1;durP2;ratioP2;P2;SDS_P1;SDS_P2;PMS_P1;PMS_P2;Temp;Humidity;BMP_temperature;BMP_pressure;BME280_temperature;BME280_humidity;BME280_pressure;Samples;Min_cycle;Max_cycle;Signal;HPM_P1;HPM_P2
2023/11/21 00:03:04;;;;;;;6.30;3.80;;;;;;;7.72;100.00;98168.89;272162;1269;22535;-90
2023/11/21 00:09:08;;;;;;;9.00;4.60;;;;;;;7.67;100.00;98172.75;271693;1269;22286;-90
2023/11/21 00:15:13;;;;;;;9.50;4.50;;;;;;;7.67;100.00;98171.11;271514;1269;23632;-90
2023/11/21 00:21:15;;;;;;;8.80;5.30;;;;;;;7.65;100.00;98178.02;270396;1269;24328;-90
2023/11/21 00:27:17;;;;;;;9.60;5.80;;;;;;;7.65;100.00;98189.30;271049;1269;22555;-90
2023/11/21 00:33:19;;;;;;;11.70;6.80;;;;;;;7.66;100.00;98193.52;271174;1269;22417;-91
2023/11/21 00:39:22;;;;;;;12.90;9.60;;;;;;;7.65;100.00;98195.91;271603;1272;22499;-90
2023/11/21 00:45:49;;;;;;;13.30;8.50;;;;;;;7.66;100.00;98195.23;272886;1260;23606;-90
2023/11/21 00:52:19;;;;;;;12.80;7.40;;;;;;;7.66;100.00;98193.36;273072;1271;22299;-90
2023/11/21 00:58:21;;;;;;;14.70;9.20;;;;;;;7.67;100.00;98188.07;270762;1262;23320;-90
2023/11/21 01:04:24;;;;;;;15.50;9.10;;;;;;;7.68;100.00;98190.48;272799;1269;23277;-91
2023/11/21 01:10:27;;;;;;;11.30;5.50;;;;;;;7.67;100.00;98195.23;271889;1269;22363;-91
2023/11/21 01:16:32;;;;;;;7.80;5.50;;;;;;;7.67;100.00;98193.21;272266;1269;22409;-92
2023/11/21 01:22:49;;;;;;;8.90;5.60;;;;;;;7.66;100.00;98184.56;272574;1275;23500;-90
2023/11/21 01:29:17;;;;;;;12.00;6.60;;;;;;;7.66;100.00;98183.78;273376;1270;22163;-90
2023/11/21 01:35:35;;;;;;;10.80;6.40;;;;;;;7.67;100.00;98185.11;273325;1270;22287;-89
2023/11/21 01:41:38;;;;;;;18.90;9.20;;;;;;;7.67;100.00;98190.80;272762;1269;22456;-91
2023/11/21 01:47:41;;;;;;;20.80;14.10;;;;;;;7.68;100.00;98194.55;272621;1262;23577;-91
2023/11/21 01:53:45;;;;;;;20.50;11.40;;;;;;;7.68;100.00;98189.39;271900;1269;22184;-90
2023/11/21 02:00:35;;;;;;;14.70;10.00;;;;;;;7.64;100.00;98188.98;273180;1275;22204;-88
2023/11/21 02:07:10;;;;;;;14.70;9.30;;;;;;;7.63;100.00;98195.44;272079;1269;22535;-88
2023/11/21 02:13:52;;;;;;;7.40;4.60;;;;;;;7.62;100.00;98196.52;272735;1272;23529;-89
2023/11/21 02:20:46;;;;;;;18.90;8.80;;;;;;;7.61;100.00;98201.17;273083;1269;22374;-88
2023/11/21 02:26:51;;;;;;;19.70;8.30;;;;;;;7.58;100.00;98201.45;273301;1272;22152;-89
2023/11/21 02:39:04;;;;;;;15.40;7.90;;;;;;;7.56;100.00;98194.27;272641;1269;24819;-89
2023/11/21 02:45:08;;;;;;;24.50;11.10;;;;;;;7.56;100.00;98193.34;272973;1269;22197;-90
2023/11/21 02:51:10;;;;;;;22.60;11.10;;;;;;;7.56;100.00;98193.64;272863;1269;22229;-90
2023/11/21 02:57:15;;;;;;;11.00;6.70;;;;;;;7.54;100.00;98196.66;272888;1269;23491;-88
2023/11/21 03:03:17;;;;;;;7.20;4.50;;;;;;;7.50;100.00;98203.86;272133;1269;22645;-88
2023/11/21 03:09:31;;;;;;;9.60;4.90;;;;;;;7.47;100.00;98206.30;272944;1270;22189;-90
2023/11/21 03:15:35;;;;;;;14.20;6.10;;;;;;;7.44;100.00;98212.11;272718;1269;22549;-87
2023/11/21 03:29:13;;;;;;;11.80;5.50;;;;;;;7.43;100.00;98213.19;273266;1270;22571;-89
2023/11/21 03:36:04;;;;;;;9.40;4.90;;;;;;;7.41;100.00;98215.59;272778;1270;22299;-90
2023/11/21 03:42:07;;;;;;;10.80;4.50;;;;;;;7.38;100.00;98221.77;271855;1269;22391;-89
2023/11/21 03:48:09;;;;;;;8.60;4.00;;;;;;;7.35;100.00;98228.43;272298;1269;22261;-90
2023/11/21 03:54:30;;;;;;;10.70;5.30;;;;;;;7.33;100.00;98233.77;272138;1269;22550;-90
2023/11/21 04:00:42;;;;;;;10.30;4.90;;;;;;;7.32;100.00;98232.90;271796;1269;22529;-90
2023/11/21 04:06:44;;;;;;;9.40;4.80;;;;;;;7.33;100.00;98230.13;272957;1270;22602;-90
2023/11/21 04:12:46;;;;;;;21.60;7.00;;;;;;;7.34;100.00;98237.61;272072;1270;23086;-89
2023/11/21 04:18:48;;;;;;;14.40;8.10;;;;;;;7.38;100.00;98239.50;272879;1269;22382;-89
2023/11/21 04:24:50;;;;;;;11.60;6.70;;;;;;;7.40;100.00;98235.09;272569;1269;22302;-90
2023/11/21 04:30:52;;;;;;;8.40;5.10;;;;;;;7.41;100.00;98233.85;272321;1269;22374;-88
2023/11/21 04:36:54;;;;;;;12.40;5.80;;;;;;;7.39;100.00;98234.77;272645;1257;23222;-90
2023/11/21 04:42:57;;;;;;;7.30;4.90;;;;;;;7.37;100.00;98244.71;272330;1268;22687;-91
2023/11/21 04:48:59;;;;;;;12.20;5.60;;;;;;;7.33;100.00;98252.91;272713;1269;22298;-91
2023/11/21 04:55:02;;;;;;;9.30;5.80;;;;;;;7.28;100.00;98251.36;272109;1269;157266;-90
2023/11/21 05:01:04;;;;;;;13.10;5.90;;;;;;;7.23;100.00;98255.20;272771;1269;22469;-90
2023/11/21 05:07:06;;;;;;;14.40;6.70;;;;;;;7.19;100.00;98256.55;272285;1269;23000;-90
2023/11/21 05:13:10;;;;;;;11.00;6.90;;;;;;;7.16;100.00;98263.12;271068;1269;23752;-92
2023/11/21 05:19:21;;;;;;;13.00;7.60;;;;;;;7.15;100.00;98271.96;272161;1269;23071;-91
2023/11/21 05:25:23;;;;;;;12.10;7.50;;;;;;;7.13;100.00;98275.06;272770;1269;22275;-91
2023/11/21 05:31:27;;;;;;;13.60;7.40;;;;;;;7.13;100.00;98278.33;272853;1267;22378;-91
2023/11/21 05:37:29;;;;;;;13.30;7.60;;;;;;;7.15;100.00;98291.80;271971;1268;22407;-93
2023/11/21 05:43:34;;;;;;;14.90;8.40;;;;;;;7.14;100.00;98291.32;272651;1269;22479;-92
2023/11/21 05:49:37;;;;;;;14.10;8.10;;;;;;;7.12;100.00;98293.87;272740;1269;22416;-92
2023/11/21 05:55:39;;;;;;;13.70;8.80;;;;;;;7.12;100.00;98303.12;272860;1268;22232;-91
2023/11/21 06:01:41;;;;;;;19.50;10.10;;;;;;;7.13;100.00;98306.16;272409;1267;22526;-91
2023/11/21 06:07:43;;;;;;;19.10;11.00;;;;;;;7.14;100.00;98315.80;271226;1269;22383;-89
2023/11/21 06:13:45;;;;;;;19.20;12.50;;;;;;;7.14;100.00;98323.06;272453;1269;22184;-90
2023/11/21 06:19:47;;;;;;;20.20;12.70;;;;;;;7.15;100.00;98328.13;272288;1269;22573;-90
2023/11/21 06:25:49;;;;;;;19.80;12.80;;;;;;;7.17;100.00;98330.71;270771;1269;22408;-91
2023/11/21 06:31:51;;;;;;;21.70;14.20;;;;;;;7.16;100.00;98329.29;272750;1269;23556;-91
2023/11/21 06:37:54;;;;;;;18.80;12.30;;;;;;;7.16;100.00;98329.54;272012;1269;22280;-90
2023/11/21 06:43:58;;;;;;;29.40;14.20;;;;;;;7.17;100.00;98337.01;272569;1269;23863;-89
2023/11/21 06:50:03;;;;;;;22.90;13.00;;;;;;;7.18;100.00;98347.60;273287;1269;22177;-89
2023/11/21 06:56:15;;;;;;;25.70;14.80;;;;;;;7.21;100.00;98353.09;273501;1270;22329;-90
2023/11/21 07:02:20;;;;;;;22.80;14.00;;;;;;;7.23;100.00;98353.52;271697;1269;22472;-91
2023/11/21 07:08:25;;;;;;;29.10;15.00;;;;;;;7.25;100.00;98360.14;273294;1269;22374;-91
2023/11/21 07:14:27;;;;;;;18.20;11.70;;;;;;;7.26;100.00;98361.70;273104;1269;23393;-89
2023/11/21 07:20:30;;;;;;;19.00;12.00;;;;;;;7.28;100.00;98365.94;272641;1269;22380;-90
2023/11/21 07:26:33;;;;;;;14.30;10.50;;;;;;;7.27;100.00;98373.16;272655;1269;23300;-91
2023/11/21 07:32:35;;;;;;;18.10;10.10;;;;;;;7.27;100.00;98380.30;272748;1268;22651;-90
2023/11/21 07:38:37;;;;;;;16.20;10.00;;;;;;;7.26;100.00;98385.52;272995;1268;22213;-90
2023/11/21 07:44:39;;;;;;;14.20;9.80;;;;;;;7.25;100.00;98393.66;272724;1269;22329;-90
2023/11/21 07:50:42;;;;;;;16.30;10.50;;;;;;;7.24;100.00;98396.30;273753;1269;22268;-90
2023/11/21 07:56:45;;;;;;;18.50;10.70;;;;;;;7.23;100.00;98396.90;271506;1269;22419;-90
2023/11/21 08:02:47;;;;;;;22.80;11.40;;;;;;;7.25;100.00;98395.38;271612;1269;22407;-90
2023/11/21 08:08:49;;;;;;;18.70;12.00;;;;;;;7.28;100.00;98390.52;272174;1269;22626;-91
2023/11/21 08:14:51;;;;;;;21.40;12.10;;;;;;;7.31;100.00;98389.33;272472;1269;22455;-90
2023/11/21 08:20:55;;;;;;;20.30;12.60;;;;;;;7.37;100.00;98390.03;271870;1269;22575;-90
2023/11/21 08:26:58;;;;;;;18.20;11.50;;;;;;;7.43;100.00;98394.30;272530;1269;22283;-90
2023/11/21 08:33:00;;;;;;;24.70;12.70;;;;;;;7.49;100.00;98397.20;272200;1269;23293;-91
2023/11/21 08:39:03;;;;;;;22.00;12.50;;;;;;;7.55;100.00;98399.77;270729;1268;24336;-91
2023/11/21 08:45:09;;;;;;;18.20;11.50;;;;;;;7.59;100.00;98405.05;270792;1269;23298;-90
2023/11/21 08:51:14;;;;;;;24.40;12.10;;;;;;;7.64;100.00;98409.54;271221;1269;23226;-92
2023/11/21 08:57:16;;;;;;;19.60;11.40;;;;;;;7.70;100.00;98416.16;270765;1269;22578;-90
2023/11/21 09:03:18;;;;;;;17.50;11.20;;;;;;;7.70;100.00;98421.70;271378;1269;22485;-89
2023/11/21 09:09:20;;;;;;;18.30;10.80;;;;;;;7.74;100.00;98418.86;272920;1268;22227;-89
2023/11/21 09:15:22;;;;;;;19.90;11.00;;;;;;;7.74;100.00;98418.02;273367;1269;22293;-89
2023/11/21 09:21:25;;;;;;;25.60;12.30;;;;;;;7.74;100.00;98420.20;272219;1268;23302;-90
2023/11/21 09:27:27;;;;;;;23.30;13.00;;;;;;;7.73;100.00;98417.38;272894;1265;22402;-89
2023/11/21 09:33:30;;;;;;;21.00;12.70;;;;;;;7.75;100.00;98410.39;272682;1268;24415;-89
2023/11/21 09:39:35;;;;;;;22.70;12.30;;;;;;;7.82;100.00;98410.02;272466;1268;22415;-90
2023/11/21 09:45:38;;;;;;;21.00;12.50;;;;;;;7.86;100.00;98418.48;272570;1259;23183;-90
2023/11/21 09:51:44;;;;;;;16.00;10.70;;;;;;;7.92;100.00;98418.23;272152;1268;22400;-90
2023/11/21 09:57:50;;;;;;;17.80;10.70;;;;;;;8.03;100.00;98422.48;272185;1269;22888;-90
2023/11/21 10:03:52;;;;;;;20.60;10.80;;;;;;;8.14;100.00;98420.60;272510;1268;23334;-89
2023/11/21 10:09:55;;;;;;;16.70;9.70;;;;;;;8.23;100.00;98424.54;271824;1256;23415;-89
2023/11/21 10:16:05;;;;;;;20.80;11.30;;;;;;;8.23;100.00;98429.60;269827;1269;23508;-89
2023/11/21 10:22:07;;;;;;;19.80;11.00;;;;;;;8.36;100.00;98426.41;271482;1269;22547;-89
2023/11/21 10:28:10;;;;;;;20.10;9.80;;;;;;;8.41;100.00;98423.11;271252;1269;22536;-88
2023/11/21 10:34:13;;;;;;;17.50;10.40;;;;;;;8.37;100.00;98423.45;271438;1269;22372;-88
2023/11/21 10:40:19;;;;;;;20.10;9.00;;;;;;;8.34;100.00;98424.98;273349;1269;22171;-90
2023/11/21 10:47:15;;;;;;;22.50;9.40;;;;;;;8.32;100.00;98424.64;271576;1269;22612;-89
2023/11/21 10:53:20;;;;;;;12.90;8.20;;;;;;;8.33;100.00;98419.90;271718;1269;22402;-90
2023/11/21 10:59:25;;;;;;;15.70;7.80;;;;;;;8.37;100.00;98419.80;272778;1269;23393;-89
2023/11/21 11:05:32;;;;;;;11.20;6.90;;;;;;;8.37;100.00;98420.56;272803;1269;22299;-86
2023/11/21 11:11:38;;;;;;;16.60;6.30;;;;;;;8.40;100.00;98419.42;272722;1269;22467;-89
2023/11/21 11:17:41;;;;;;;12.60;6.50;;;;;;;8.39;100.00;98421.68;272797;1269;22368;-89
2023/11/21 11:23:46;;;;;;;9.80;6.40;;;;;;;8.42;100.00;98423.80;272525;1269;22527;-90
2023/11/21 11:29:58;;;;;;;13.10;7.30;;;;;;;8.39;100.00;98426.81;271733;1269;23658;-89
2023/11/21 11:36:07;;;;;;;12.50;6.90;;;;;;;8.33;100.00;98427.70;270392;1269;22596;-89
2023/11/21 11:42:35;;;;;;;12.40;6.90;;;;;;;8.26;100.00;98430.19;272798;1269;22200;-90
2023/11/21 11:48:39;;;;;;;15.60;8.30;;;;;;;8.30;100.00;98433.05;272992;1268;22904;-89
2023/11/21 11:54:43;;;;;;;16.00;8.00;;;;;;;8.43;100.00;98441.44;272825;1268;22662;-89
2023/11/21 12:00:48;;;;;;;14.60;7.00;;;;;;;8.53;100.00;98442.55;272899;1269;23768;-89
2023/11/21 12:07:29;;;;;;;12.80;7.20;;;;;;;8.60;100.00;98439.36;271701;1269;22625;-89
2023/11/21 12:13:31;;;;;;;14.60;6.40;;;;;;;8.64;100.00;98434.34;272899;1269;22357;-88
2023/11/21 12:19:34;;;;;;;19.10;7.80;;;;;;;8.71;100.00;98439.84;273003;1268;22530;-89
2023/11/21 12:25:36;;;;;;;15.40;7.90;;;;;;;8.76;100.00;98433.89;273154;1268;23430;-89
2023/11/21 12:31:39;;;;;;;14.40;7.20;;;;;;;8.79;100.00;98435.33;271111;1269;23727;-88
2023/11/21 12:37:44;;;;;;;14.50;7.70;;;;;;;8.75;100.00;98436.31;271041;1269;22567;-90
2023/11/21 12:43:49;;;;;;;13.80;7.40;;;;;;;8.67;100.00;98436.05;272466;1269;22327;-89
2023/11/21 12:49:51;;;;;;;11.10;7.10;;;;;;;8.58;100.00;98433.41;272783;1269;22387;-88
2023/11/21 12:56:23;;;;;;;16.40;7.90;;;;;;;8.48;100.00;98435.80;273065;1260;22193;-88
2023/11/21 13:02:56;;;;;;;16.20;8.70;;;;;;;8.44;100.00;98438.23;272945;1269;22462;-88
2023/11/21 13:09:24;;;;;;;16.70;7.80;;;;;;;8.41;100.00;98434.17;273581;1276;23514;-87
2023/11/21 13:16:27;;;;;;;14.80;8.70;;;;;;;8.47;100.00;98435.63;273211;1272;22299;-88
2023/11/21 13:30:33;;;;;;;16.00;9.50;;;;;;;8.46;100.00;98453.02;273673;1277;22159;-88
2023/11/21 13:37:52;;;;;;;14.50;9.60;;;;;;;8.28;100.00;98459.74;273779;1276;22335;-89
2023/11/21 13:44:03;;;;;;;15.80;10.30;;;;;;;8.10;100.00;98463.08;272668;1269;22271;-88
2023/11/21 13:50:13;;;;;;;15.60;9.90;;;;;;;7.99;100.00;98467.61;272724;1269;22189;-89
2023/11/21 13:56:24;;;;;;;16.90;11.10;;;;;;;7.95;100.00;98470.44;272831;1269;22411;-90
2023/11/21 14:02:51;;;;;;;24.30;12.60;;;;;;;7.91;100.00;98469.16;272136;1269;22383;-88
2023/11/21 14:08:57;;;;;;;27.70;16.30;;;;;;;7.91;100.00;98474.44;273032;1269;22301;-87
2023/11/21 14:15:10;;;;;;;30.40;16.10;;;;;;;7.89;100.00;98474.50;272095;1269;22439;-87
2023/11/21 14:28:48;;;;;;;26.00;14.40;;;;;;;7.83;100.00;98487.64;272427;1269;27584;-88
2023/11/21 14:35:11;;;;;;;23.10;12.50;;;;;;;7.79;100.00;98494.05;272581;1274;22383;-88
2023/11/21 14:41:41;;;;;;;23.80;13.40;;;;;;;7.79;100.00;98496.70;272911;1259;22206;-88
2023/11/21 14:47:49;;;;;;;18.10;11.80;;;;;;;7.79;100.00;98499.27;273025;1267;23172;-87
2023/11/21 14:53:53;;;;;;;21.60;11.60;;;;;;;7.75;100.00;98503.56;272832;1269;22479;-88
2023/11/21 14:59:57;;;;;;;14.40;8.70;;;;;;;7.71;100.00;98510.52;272792;1269;22303;-89
2023/11/21 15:06:26;;;;;;;14.60;9.50;;;;;;;7.66;100.00;98515.89;273103;1269;22180;-87
2023/11/21 15:12:43;;;;;;;13.00;9.00;;;;;;;7.58;100.00;98517.64;273701;1276;22177;-87
2023/11/21 15:18:45;;;;;;;15.50;9.00;;;;;;;7.52;100.00;98519.48;272783;1268;23086;-87
2023/11/21 15:24:49;;;;;;;15.30;8.90;;;;;;;7.50;100.00;98530.80;271644;1269;22447;-87
2023/11/21 15:30:51;;;;;;;20.90;9.50;;;;;;;7.47;100.00;98535.90;272808;1269;23365;-87
2023/11/21 15:36:54;;;;;;;15.20;9.80;;;;;;;7.44;100.00;98544.42;272974;1269;22429;-87
2023/11/21 15:42:56;;;;;;;21.80;11.20;;;;;;;7.40;100.00;98552.91;273072;1269;22521;-88
2023/11/21 15:48:58;;;;;;;18.50;10.70;;;;;;;7.37;100.00;98550.38;271822;1269;22439;-87
2023/11/21 15:55:00;;;;;;;17.00;11.80;;;;;;;7.33;100.00;98554.20;272955;1269;23261;-88
2023/11/21 16:01:03;;;;;;;19.60;12.10;;;;;;;7.27;100.00;98560.39;272765;1269;22373;-88
2023/11/21 16:07:09;;;;;;;22.90;13.10;;;;;;;7.27;100.00;98561.79;272740;1268;22394;-88
2023/11/21 16:13:13;;;;;;;20.20;13.00;;;;;;;7.27;100.00;98566.54;272496;1269;23619;-88
2023/11/21 16:19:15;;;;;;;21.60;13.60;;;;;;;7.29;100.00;98567.98;273235;1269;22439;-89
2023/11/21 16:25:19;;;;;;;24.60;13.80;;;;;;;7.26;100.00;98565.36;272587;1269;22188;-86
2023/11/21 16:31:23;;;;;;;28.80;14.20;;;;;;;7.20;100.00;98574.96;272608;1269;23526;-87
2023/11/21 16:37:25;;;;;;;18.80;13.00;;;;;;;7.19;100.00;98582.64;272785;1269;22409;-87
2023/11/21 16:44:16;;;;;;;23.70;13.80;;;;;;;7.18;100.00;98587.61;273104;1272;22493;-87
2023/11/21 16:50:18;;;;;;;23.60;14.40;;;;;;;7.15;100.00;98598.83;272027;1269;422072;-88
2023/11/21 16:56:20;;;;;;;22.40;13.60;;;;;;;7.12;100.00;98603.83;272867;1269;22433;-88
2023/11/21 17:02:23;;;;;;;20.50;11.80;;;;;;;7.09;100.00;98609.30;272017;1269;22551;-88
2023/11/21 17:08:28;;;;;;;18.30;10.30;;;;;;;7.07;100.00;98614.48;272585;1269;24192;-88
2023/11/21 17:14:30;;;;;;;19.20;10.60;;;;;;;7.05;100.00;98622.13;272742;1269;22511;-87
2023/11/21 17:20:32;;;;;;;20.90;11.10;;;;;;;7.01;100.00;98629.84;273204;1259;23123;-90
2023/11/21 17:26:37;;;;;;;22.70;12.60;;;;;;;7.00;100.00;98630.44;272843;1269;22216;-87
2023/11/21 17:32:39;;;;;;;25.20;14.20;;;;;;;7.01;100.00;98629.82;272887;1269;22399;-88
2023/11/21 17:38:44;;;;;;;20.80;12.60;;;;;;;6.99;100.00;98637.66;272934;1266;22562;-87
2023/11/21 17:44:46;;;;;;;24.80;13.70;;;;;;;6.99;100.00;98637.90;271933;1269;23959;-89
2023/11/21 17:50:48;;;;;;;25.30;13.70;;;;;;;6.99;100.00;98638.42;272173;1262;23556;-88
2023/11/21 17:56:54;;;;;;;24.90;14.30;;;;;;;6.98;100.00;98637.95;272599;1268;22331;-90
2023/11/21 18:02:59;;;;;;;27.00;16.00;;;;;;;6.98;100.00;98642.45;271343;1269;22408;-89
2023/11/21 18:09:03;;;;;;;30.80;16.00;;;;;;;6.96;100.00;98643.19;272815;1269;22286;-90
2023/11/21 18:15:08;;;;;;;28.20;16.30;;;;;;;6.93;100.00;98646.25;272756;1269;22474;-89
2023/11/21 18:21:10;;;;;;;29.20;17.10;;;;;;;6.94;100.00;98646.19;272597;1268;22842;-89
2023/11/21 18:27:12;;;;;;;28.20;18.50;;;;;;;6.93;100.00;98650.13;272749;1269;22407;-89
2023/11/21 18:33:15;;;;;;;30.80;18.30;;;;;;;6.92;100.00;98656.02;270755;1269;22548;-88
2023/11/21 18:39:17;;;;;;;28.00;17.60;;;;;;;6.88;100.00;98665.11;271823;1269;22178;-87
2023/11/21 18:52:29;;;;;;;17.60;8.80;;;;;;;6.37;100.00;98687.16;273479;1270;22597;-88
2023/11/21 18:58:35;;;;;;;18.20;10.30;;;;;;;6.07;100.00;98694.92;271834;1269;23325;-87
2023/11/21 19:12:20;;;;;;;22.70;11.30;;;;;;;5.54;100.00;98722.89;272347;1275;22365;-87
2023/11/21 19:18:38;;;;;;;25.80;12.60;;;;;;;5.37;100.00;98739.70;271723;1281;22218;-88
2023/11/21 19:25:08;;;;;;;24.00;13.90;;;;;;;5.19;100.00;98754.67;273277;1267;22227;-86
2023/11/21 19:31:41;;;;;;;28.10;15.20;;;;;;;4.96;100.00;98761.43;273696;1276;22388;-88
2023/11/21 20:00:01;;;;;;;25.40;13.00;;;;;;;4.20;100.00;98808.25;273122;1270;23671;-86
2023/11/21 20:06:22;;;;;;;22.90;12.00;;;;;;;4.04;100.00;98824.02;272462;1274;23860;-88
2023/11/21 20:12:25;;;;;;;22.20;10.90;;;;;;;3.92;100.00;98836.93;269738;1274;22455;-89
2023/11/21 20:18:30;;;;;;;22.40;11.00;;;;;;;3.72;100.00;98845.14;269748;1273;25365;-87
2023/11/21 20:25:33;;;;;;;20.30;11.60;;;;;;;3.51;100.00;98855.73;270621;1273;22592;-89
2023/11/21 20:31:35;;;;;;;18.80;10.70;;;;;;;3.38;100.00;98859.20;270586;1273;22246;-88
2023/11/21 20:37:38;;;;;;;20.70;10.50;;;;;;;3.30;100.00;98865.23;272554;1269;22911;-88
2023/11/21 20:51:22;;;;;;;16.00;9.00;;;;;;;3.16;100.00;98887.62;273531;1273;22207;-87
2023/11/21 20:57:49;;;;;;;17.90;8.80;;;;;;;3.06;100.00;98899.96;273444;1276;22187;-88
2023/11/21 21:04:18;;;;;;;15.50;9.60;;;;;;;3.03;100.00;98906.34;271986;1271;22193;-87
2023/11/21 21:10:42;;;;;;;14.80;8.20;;;;;;;3.05;100.00;98915.75;273317;1274;23528;-87
2023/11/21 21:16:44;;;;;;;16.50;8.40;;;;;;;3.05;100.00;98924.40;273416;1270;22644;-88
2023/11/21 21:22:46;;;;;;;16.40;8.70;;;;;;;3.01;100.00;98936.29;270679;1270;23519;-88
2023/11/21 21:29:13;;;;;;;18.10;9.60;;;;;;;2.94;100.00;98942.05;271574;1270;22543;-87
2023/11/21 21:35:37;;;;;;;17.20;8.90;;;;;;;2.88;100.00;98954.16;272754;1269;22285;-88
2023/11/21 21:41:39;;;;;;;15.20;8.80;;;;;;;2.87;100.00;98969.98;273593;1274;23892;-88
2023/11/21 21:47:44;;;;;;;16.60;8.50;;;;;;;2.82;100.00;98981.43;273596;1273;22203;-89
2023/11/21 22:02:15;;;;;;;17.60;10.10;;;;;;;2.59;100.00;99010.25;273708;1269;22201;-89
2023/11/21 22:09:07;;;;;;;12.50;8.30;;;;;;;2.52;100.00;99023.99;273556;1277;22905;-87
2023/11/21 22:16:17;;;;;;;15.10;8.90;;;;;;;2.34;100.00;99035.50;273493;1270;22185;-87
2023/11/21 22:22:45;;;;;;;14.70;8.70;;;;;;;2.19;100.00;99038.02;273655;1270;22208;-88
2023/11/21 22:28:47;;;;;;;13.40;8.60;;;;;;;2.11;100.00;99049.00;272989;1269;23068;-87
2023/11/21 22:34:49;;;;;;;14.80;9.00;;;;;;;2.08;100.00;99063.96;272803;1269;22266;-88
2023/11/21 22:40:52;;;;;;;15.50;9.60;;;;;;;2.11;100.00;99077.47;272738;1269;22387;-89
2023/11/21 22:47:44;;;;;;;15.10;8.70;;;;;;;2.07;100.00;99086.39;272586;1269;22429;-86
2023/11/21 22:54:13;;;;;;;21.90;9.90;;;;;;;1.97;100.00;99098.80;273548;1269;22230;-88
2023/11/21 23:00:41;;;;;;;14.70;9.10;;;;;;;1.91;100.00;99108.86;272868;1270;22210;-87
2023/11/21 23:14:38;;;;;;;15.50;10.30;;;;;;;1.59;100.00;99128.84;273608;1276;22218;-87
2023/11/21 23:21:11;;;;;;;22.90;10.40;;;;;;;1.38;100.00;99140.86;273029;1270;23327;-87
2023/11/21 23:27:13;;;;;;;17.30;10.80;;;;;;;1.18;100.00;99148.41;273392;1272;22211;-88
2023/11/21 23:33:15;;;;;;;21.40;11.40;;;;;;;0.99;100.00;99157.01;273414;1270;22560;-87
2023/11/21 23:39:43;;;;;;;19.60;11.20;;;;;;;0.83;100.00;99163.45;273108;1273;23382;-89
2023/11/21 23:53:48;;;;;;;22.40;13.10;;;;;;;0.62;100.00;99169.77;273622;1277;22195;-88
